Portada
METAR-TAF:

METAR-TAF

Aeropuertos :

San Juan De Los Morros, Venezuela

latitud: 09-55N, longitud: 067-20W, altitud: 429 m

Observación

El informe se hizo hace 36 minutos, a las 23:02 UTC
Viento 4 kt del oeste-noroeste
Temperatura 29°C
Humedad 48%
Presión 1007 hPa

METAR: SVJM 132302Z AUTO 29004KT NCD 29/17 Q1007

Hora: 19:38 (23:38 UTC)


TAF: falta

Observaciones y pronósticos meteorológicos de más de 4000 aeropuertos (mensajes METAR y TAF).

Los puntos amarillos y rojos representan las estaciones disponibles.

Ponga el ratón en el punto deseado para ver el nombre de la estación.

Haga clic para ver las observaciones y los pronósticos meteorológicos.

Para cambiar el mapa : haga clic en los botones verdes con una cruz de color negro para hacer un zoom, en el botón verde con un guión para alejar o en las flechas verdes para mapas adyacentes.


METAR-TAF: